Alder Grove, Washington
Current Conditions -  °F | °C
As of 10:53 PM on Wednesday 22 Oct 2014 (Local Time) from KSHN Reporting Station
Light Rain Light Rain  
Wind Chill: 54°   Ceiling: 3700
Heat Index: 54°   Visibility: 10mi
Dew Point: 51°   Wind: 7mph
Humidity: 90%   Direction: 210°SSW
Pressure: 29.65"   Gusts: NA
Location:  47.555°N, 123.746°W
Report Text: KSHN 230553Z AUTO 21006KT 10SM -RA SCT025 BKN037 OVC070 12/11 A2965 RMK AO2 SLP040 P0020 60047 T01220106 10133 20122 53029 TSNO
Loading
Personal Weather Stations






























Interactive Weather Map New forecast layout! Learn more

10-Day Weather Forecast

Advertisements
Track Severe Weather on mobile